sensor_id;sensor_type;location;lat;lon;timestamp;pressure;altitude;pressure_sealevel;temperature;humidity
20368;BME280;10343;52.402;9.796;2023-12-14T00:01:19;100219.75;;;5.47;85.04
20368;BME280;10343;52.402;9.796;2023-12-14T00:03:47;100229.00;;;5.46;84.98
20368;BME280;10343;52.402;9.796;2023-12-14T00:06:15;100232.59;;;5.41;84.99
20368;BME280;10343;52.402;9.796;2023-12-14T00:08:43;100229.91;;;5.36;85.37
20368;BME280;10343;52.402;9.796;2023-12-14T00:11:12;100236.97;;;5.37;85.65
20368;BME280;10343;52.402;9.796;2023-12-14T00:13:40;100241.41;;;5.28;85.95
20368;BME280;10343;52.402;9.796;2023-12-14T00:16:08;100248.25;;;5.26;86.23
20368;BME280;10343;52.402;9.796;2023-12-14T00:18:36;100245.75;;;5.29;86.20
20368;BME280;10343;52.402;9.796;2023-12-14T00:21:04;100256.47;;;5.21;86.00
20368;BME280;10343;52.402;9.796;2023-12-14T00:23:33;100260.81;;;5.22;86.24
20368;BME280;10343;52.402;9.796;2023-12-14T00:26:01;100266.25;;;5.22;85.90
20368;BME280;10343;52.402;9.796;2023-12-14T00:28:31;100267.38;;;5.15;85.09
20368;BME280;10343;52.402;9.796;2023-12-14T00:31:00;100264.69;;;5.10;85.88
20368;BME280;10343;52.402;9.796;2023-12-14T00:33:28;100273.63;;;5.16;85.23
20368;BME280;10343;52.402;9.796;2023-12-14T00:35:56;100280.97;;;5.15;85.21
20368;BME280;10343;52.402;9.796;2023-12-14T00:38:24;100282.94;;;5.10;85.42
20368;BME280;10343;52.402;9.796;2023-12-14T00:40:52;100285.06;;;5.13;85.69
20368;BME280;10343;52.402;9.796;2023-12-14T00:43:20;100285.66;;;5.10;85.49
20368;BME280;10343;52.402;9.796;2023-12-14T00:45:49;100294.91;;;5.09;85.27
20368;BME280;10343;52.402;9.796;2023-12-14T00:48:19;100297.09;;;5.07;85.57
20368;BME280;10343;52.402;9.796;2023-12-14T00:50:46;100300.34;;;5.09;85.03
20368;BME280;10343;52.402;9.796;2023-12-14T00:53:14;100310.16;;;5.05;85.19
20368;BME280;10343;52.402;9.796;2023-12-14T00:55:42;100317.53;;;5.04;84.11
20368;BME280;10343;52.402;9.796;2023-12-14T00:58:12;100328.34;;;5.09;84.92
20368;BME280;10343;52.402;9.796;2023-12-14T01:00:41;100336.81;;;5.08;84.65
20368;BME280;10343;52.402;9.796;2023-12-14T01:03:10;100346.31;;;5.10;84.45
20368;BME280;10343;52.402;9.796;2023-12-14T01:05:38;100341.66;;;5.11;83.72
20368;BME280;10343;52.402;9.796;2023-12-14T01:08:06;100343.53;;;5.15;83.96
20368;BME280;10343;52.402;9.796;2023-12-14T01:10:35;100349.22;;;5.19;84.06
20368;BME280;10343;52.402;9.796;2023-12-14T01:13:02;100350.31;;;5.23;84.40
20368;BME280;10343;52.402;9.796;2023-12-14T01:15:30;100352.50;;;5.21;84.32
20368;BME280;10343;52.402;9.796;2023-12-14T01:17:58;100363.06;;;5.28;83.81
20368;BME280;10343;52.402;9.796;2023-12-14T01:20:27;100366.59;;;5.28;84.34
20368;BME280;10343;52.402;9.796;2023-12-14T01:22:55;100360.38;;;5.23;84.35
20368;BME280;10343;52.402;9.796;2023-12-14T01:25:23;100366.91;;;5.22;84.53
20368;BME280;10343;52.402;9.796;2023-12-14T01:27:51;100365.81;;;5.23;84.77
20368;BME280;10343;52.402;9.796;2023-12-14T01:30:19;100379.13;;;5.24;84.64
20368;BME280;10343;52.402;9.796;2023-12-14T01:32:49;100377.00;;;5.16;84.66
20368;BME280;10343;52.402;9.796;2023-12-14T01:35:17;100371.56;;;5.16;85.08
20368;BME280;10343;52.402;9.796;2023-12-14T01:37:47;100386.78;;;5.17;84.52
20368;BME280;10343;52.402;9.796;2023-12-14T01:40:18;100391.69;;;5.15;85.00
20368;BME280;10343;52.402;9.796;2023-12-14T01:42:46;100399.84;;;5.15;84.75
20368;BME280;10343;52.402;9.796;2023-12-14T01:45:14;100397.41;;;5.13;84.89
20368;BME280;10343;52.402;9.796;2023-12-14T01:47:43;100401.00;;;5.09;85.10
20368;BME280;10343;52.402;9.796;2023-12-14T01:50:11;100409.97;;;5.09;85.12
20368;BME280;10343;52.402;9.796;2023-12-14T01:52:40;100412.97;;;5.08;85.04
20368;BME280;10343;52.402;9.796;2023-12-14T01:55:09;100417.88;;;5.06;85.32
20368;BME280;10343;52.402;9.796;2023-12-14T01:57:37;100419.53;;;4.97;85.07
20368;BME280;10343;52.402;9.796;2023-12-14T02:00:06;100416.03;;;4.91;85.78
20368;BME280;10343;52.402;9.796;2023-12-14T02:02:34;100415.75;;;4.93;85.17
20368;BME280;10343;52.402;9.796;2023-12-14T02:05:04;100429.09;;;4.84;85.15
20368;BME280;10343;52.402;9.796;2023-12-14T02:07:32;100433.72;;;4.83;85.42
20368;BME280;10343;52.402;9.796;2023-12-14T02:10:01;100432.13;;;4.77;85.29
20368;BME280;10343;52.402;9.796;2023-12-14T02:12:30;100443.28;;;4.76;85.13
20368;BME280;10343;52.402;9.796;2023-12-14T02:15:00;100442.16;;;4.82;85.59
20368;BME280;10343;52.402;9.796;2023-12-14T02:17:28;100440.81;;;4.79;85.95
20368;BME280;10343;52.402;9.796;2023-12-14T02:19:56;100437.53;;;4.82;85.89
20368;BME280;10343;52.402;9.796;2023-12-14T02:22:23;100438.63;;;4.81;85.72
20368;BME280;10343;52.402;9.796;2023-12-14T02:24:53;100453.59;;;4.79;85.40
20368;BME280;10343;52.402;9.796;2023-12-14T02:27:20;100447.13;;;4.70;85.10
20368;BME280;10343;52.402;9.796;2023-12-14T02:29:48;100451.75;;;4.69;85.00
20368;BME280;10343;52.402;9.796;2023-12-14T02:32:16;100455.00;;;4.66;84.72
20368;BME280;10343;52.402;9.796;2023-12-14T02:34:44;100456.63;;;4.72;84.89
20368;BME280;10343;52.402;9.796;2023-12-14T02:37:11;100468.88;;;4.70;84.72
20368;BME280;10343;52.402;9.796;2023-12-14T02:39:39;100475.13;;;4.70;85.32
20368;BME280;10343;52.402;9.796;2023-12-14T02:42:08;100478.91;;;4.74;84.79
20368;BME280;10343;52.402;9.796;2023-12-14T02:44:36;100479.97;;;4.78;85.04
20368;BME280;10343;52.402;9.796;2023-12-14T02:47:04;100482.72;;;4.73;84.46
20368;BME280;10343;52.402;9.796;2023-12-14T02:49:32;100485.69;;;4.77;83.81
20368;BME280;10343;52.402;9.796;2023-12-14T02:52:01;100489.50;;;4.76;84.07
20368;BME280;10343;52.402;9.796;2023-12-14T02:54:28;100495.22;;;4.74;83.63
20368;BME280;10343;52.402;9.796;2023-12-14T02:56:56;100493.03;;;4.76;84.13
20368;BME280;10343;52.402;9.796;2023-12-14T02:59:25;100496.81;;;4.80;84.25
20368;BME280;10343;52.402;9.796;2023-12-14T03:01:53;100493.31;;;4.85;84.47
20368;BME280;10343;52.402;9.796;2023-12-14T03:04:21;100502.81;;;4.88;83.67
20368;BME280;10343;52.402;9.796;2023-12-14T03:06:49;100501.72;;;4.89;84.02
20368;BME280;10343;52.402;9.796;2023-12-14T03:09:17;100506.31;;;4.93;83.60
20368;BME280;10343;52.402;9.796;2023-12-14T03:11:46;100501.16;;;4.92;83.74
20368;BME280;10343;52.402;9.796;2023-12-14T03:14:14;100504.97;;;4.91;83.79
20368;BME280;10343;52.402;9.796;2023-12-14T03:16:43;100505.50;;;4.93;83.97
20368;BME280;10343;52.402;9.796;2023-12-14T03:19:11;100512.06;;;4.87;83.75
20368;BME280;10343;52.402;9.796;2023-12-14T03:21:39;100515.31;;;4.89;83.86
20368;BME280;10343;52.402;9.796;2023-12-14T03:24:06;100514.22;;;4.84;83.43
20368;BME280;10343;52.402;9.796;2023-12-14T03:26:35;100513.97;;;4.86;83.25
20368;BME280;10343;52.402;9.796;2023-12-14T03:29:03;100516.41;;;4.82;83.38
20368;BME280;10343;52.402;9.796;2023-12-14T03:31:31;100517.22;;;4.83;83.77
20368;BME280;10343;52.402;9.796;2023-12-14T03:34:00;100519.66;;;4.79;82.95
20368;BME280;10343;52.402;9.796;2023-12-14T03:36:29;100526.75;;;4.85;82.63
20368;BME280;10343;52.402;9.796;2023-12-14T03:38:56;100530.81;;;4.78;82.80
20368;BME280;10343;52.402;9.796;2023-12-14T03:41:24;100539.78;;;4.83;82.94
20368;BME280;10343;52.402;9.796;2023-12-14T03:43:52;100546.31;;;4.82;82.18
20368;BME280;10343;52.402;9.796;2023-12-14T03:46:20;100543.03;;;4.91;82.83
20368;BME280;10343;52.402;9.796;2023-12-14T03:48:47;100542.78;;;4.87;82.54
20368;BME280;10343;52.402;9.796;2023-12-14T03:51:19;100536.25;;;4.88;82.53
20368;BME280;10343;52.402;9.796;2023-12-14T03:53:47;100540.59;;;4.84;82.42
20368;BME280;10343;52.402;9.796;2023-12-14T03:56:15;100547.41;;;4.87;82.47
20368;BME280;10343;52.402;9.796;2023-12-14T03:58:43;100555.81;;;4.90;82.85
20368;BME280;10343;52.402;9.796;2023-12-14T04:01:16;100560.44;;;4.84;82.21
20368;BME280;10343;52.402;9.796;2023-12-14T04:03:43;100571.31;;;4.84;82.23
20368;BME280;10343;52.402;9.796;2023-12-14T04:06:11;100566.19;;;4.73;81.72
20368;BME280;10343;52.402;9.796;2023-12-14T04:08:41;100570.78;;;4.82;82.34
20368;BME280;10343;52.402;9.796;2023-12-14T04:11:09;100580.03;;;4.87;82.48
20368;BME280;10343;52.402;9.796;2023-12-14T04:13:38;100581.66;;;4.88;82.12
20368;BME280;10343;52.402;9.796;2023-12-14T04:16:06;100596.38;;;4.87;82.19
20368;BME280;10343;52.402;9.796;2023-12-14T04:18:34;100596.91;;;4.78;81.68
20368;BME280;10343;52.402;9.796;2023-12-14T04:21:02;100601.22;;;4.84;81.68
20368;BME280;10343;52.402;9.796;2023-12-14T04:23:30;100603.94;;;4.84;82.06
20368;BME280;10343;52.402;9.796;2023-12-14T04:25:59;100608.88;;;4.88;82.36
20368;BME280;10343;52.402;9.796;2023-12-14T04:28:27;100617.31;;;4.86;81.76
20368;BME280;10343;52.402;9.796;2023-12-14T04:30:55;100618.63;;;4.83;81.77
20368;BME280;10343;52.402;9.796;2023-12-14T04:33:23;100622.97;;;4.84;81.16
20368;BME280;10343;52.402;9.796;2023-12-14T04:35:51;100620.81;;;4.92;81.38
20368;BME280;10343;52.402;9.796;2023-12-14T04:38:19;100624.06;;;4.83;82.39
20368;BME280;10343;52.402;9.796;2023-12-14T04:40:47;100634.13;;;4.83;81.74
20368;BME280;10343;52.402;9.796;2023-12-14T04:43:16;100623.53;;;4.81;82.08
20368;BME280;10343;52.402;9.796;2023-12-14T04:45:44;100628.69;;;4.83;81.89
20368;BME280;10343;52.402;9.796;2023-12-14T04:48:11;100646.91;;;4.82;81.34
20368;BME280;10343;52.402;9.796;2023-12-14T04:50:39;100650.47;;;4.88;81.82
20368;BME280;10343;52.402;9.796;2023-12-14T04:53:08;100646.13;;;4.87;81.97
20368;BME280;10343;52.402;9.796;2023-12-14T04:55:36;100655.38;;;4.91;81.68
20368;BME280;10343;52.402;9.796;2023-12-14T04:58:03;100654.56;;;4.85;81.48
20368;BME280;10343;52.402;9.796;2023-12-14T05:00:33;100653.19;;;4.83;81.89
20368;BME280;10343;52.402;9.796;2023-12-14T05:03:00;100652.34;;;4.82;81.63
20368;BME280;10343;52.402;9.796;2023-12-14T05:05:28;100653.19;;;4.83;81.04
20368;BME280;10343;52.402;9.796;2023-12-14T05:07:56;100660.78;;;4.81;81.98
20368;BME280;10343;52.402;9.796;2023-12-14T05:10:24;100666.78;;;4.83;81.19
20368;BME280;10343;52.402;9.796;2023-12-14T05:12:50;100664.88;;;4.83;81.52
20368;BME280;10343;52.402;9.796;2023-12-14T05:15:18;100670.31;;;4.78;81.63
20368;BME280;10343;52.402;9.796;2023-12-14T05:17:47;100674.13;;;4.72;82.13
20368;BME280;10343;52.402;9.796;2023-12-14T05:20:15;100684.19;;;4.72;81.72
20368;BME280;10343;52.402;9.796;2023-12-14T05:22:43;100685.81;;;4.73;82.33
20368;BME280;10343;52.402;9.796;2023-12-14T05:25:11;100695.59;;;4.74;81.42
20368;BME280;10343;52.402;9.796;2023-12-14T05:27:38;100697.50;;;4.78;81.44
20368;BME280;10343;52.402;9.796;2023-12-14T05:30:07;100696.41;;;4.79;81.11
20368;BME280;10343;52.402;9.796;2023-12-14T05:32:35;100703.22;;;4.82;81.54
20368;BME280;10343;52.402;9.796;2023-12-14T05:35:06;100699.13;;;4.84;81.95
20368;BME280;10343;52.402;9.796;2023-12-14T05:37:34;100700.25;;;4.89;80.90
20368;BME280;10343;52.402;9.796;2023-12-14T05:40:02;100707.84;;;4.81;81.12
20368;BME280;10343;52.402;9.796;2023-12-14T05:42:30;100712.72;;;4.84;80.85
20368;BME280;10343;52.402;9.796;2023-12-14T05:44:58;100710.00;;;4.84;80.85
20368;BME280;10343;52.402;9.796;2023-12-14T05:47:25;100720.34;;;4.82;81.59
20368;BME280;10343;52.402;9.796;2023-12-14T05:49:53;100729.63;;;4.87;81.28
20368;BME280;10343;52.402;9.796;2023-12-14T05:52:23;100733.66;;;4.84;80.83
20368;BME280;10343;52.402;9.796;2023-12-14T05:54:50;100729.34;;;4.88;80.59
20368;BME280;10343;52.402;9.796;2023-12-14T05:57:18;100740.47;;;4.81;80.63
20368;BME280;10343;52.402;9.796;2023-12-14T05:59:46;100738.84;;;4.80;80.61
20368;BME280;10343;52.402;9.796;2023-12-14T06:02:14;100739.38;;;4.77;79.85
20368;BME280;10343;52.402;9.796;2023-12-14T06:04:45;100751.34;;;4.71;80.38
20368;BME280;10343;52.402;9.796;2023-12-14T06:07:14;100750.25;;;4.77;80.91
20368;BME280;10343;52.402;9.796;2023-12-14T06:09:43;100748.09;;;4.79;80.40
20368;BME280;10343;52.402;9.796;2023-12-14T06:12:11;100745.91;;;4.81;79.82
20368;BME280;10343;52.402;9.796;2023-12-14T06:14:39;100753.78;;;4.83;80.41
20368;BME280;10343;52.402;9.796;2023-12-14T06:17:08;100749.16;;;4.83;80.56
20368;BME280;10343;52.402;9.796;2023-12-14T06:19:35;100758.72;;;4.86;80.22
20368;BME280;10343;52.402;9.796;2023-12-14T06:22:03;100760.84;;;4.84;80.04
20368;BME280;10343;52.402;9.796;2023-12-14T06:24:31;100766.03;;;4.80;79.65
20368;BME280;10343;52.402;9.796;2023-12-14T06:27:00;100776.94;;;4.85;79.91
20368;BME280;10343;52.402;9.796;2023-12-14T06:29:28;100774.72;;;4.82;79.63
20368;BME280;10343;52.402;9.796;2023-12-14T06:31:56;100776.63;;;4.82;79.47
20368;BME280;10343;52.402;9.796;2023-12-14T06:34:23;100785.34;;;4.84;79.82
20368;BME280;10343;52.402;9.796;2023-12-14T06:36:52;100782.06;;;4.82;79.75
20368;BME280;10343;52.402;9.796;2023-12-14T06:39:19;100787.00;;;4.85;79.58
20368;BME280;10343;52.402;9.796;2023-12-14T06:41:47;100788.88;;;4.84;80.10
20368;BME280;10343;52.402;9.796;2023-12-14T06:44:16;100795.16;;;4.85;80.07
20368;BME280;10343;52.402;9.796;2023-12-14T06:46:44;100798.66;;;4.80;80.17
20368;BME280;10343;52.402;9.796;2023-12-14T06:49:12;100795.94;;;4.75;80.04
20368;BME280;10343;52.402;9.796;2023-12-14T06:51:42;100805.72;;;4.71;80.19
20368;BME280;10343;52.402;9.796;2023-12-14T06:54:10;100805.72;;;4.76;79.99
20368;BME280;10343;52.402;9.796;2023-12-14T06:56:37;100807.91;;;4.79;80.70
20368;BME280;10343;52.402;9.796;2023-12-14T06:59:05;100816.31;;;4.78;80.07
20368;BME280;10343;52.402;9.796;2023-12-14T07:01:34;100815.78;;;4.81;79.95
20368;BME280;10343;52.402;9.796;2023-12-14T07:04:03;100823.13;;;4.80;79.98
20368;BME280;10343;52.402;9.796;2023-12-14T07:06:31;100826.94;;;4.84;80.06
20368;BME280;10343;52.402;9.796;2023-12-14T07:08:58;100833.75;;;4.82;79.93
20368;BME280;10343;52.402;9.796;2023-12-14T07:11:26;100834.81;;;4.81;80.24
20368;BME280;10343;52.402;9.796;2023-12-14T07:13:54;100840.53;;;4.79;80.33
20368;BME280;10343;52.402;9.796;2023-12-14T07:16:22;100845.69;;;4.81;80.35
20368;BME280;10343;52.402;9.796;2023-12-14T07:18:51;100847.59;;;4.80;80.25
20368;BME280;10343;52.402;9.796;2023-12-14T07:21:18;100864.47;;;4.82;80.51
20368;BME280;10343;52.402;9.796;2023-12-14T07:23:46;100864.19;;;4.84;80.00
20368;BME280;10343;52.402;9.796;2023-12-14T07:26:14;100861.75;;;4.82;80.44
20368;BME280;10343;52.402;9.796;2023-12-14T07:28:42;100871.53;;;4.83;80.83
20368;BME280;10343;52.402;9.796;2023-12-14T07:31:09;100869.13;;;4.87;79.99
20368;BME280;10343;52.402;9.796;2023-12-14T07:33:37;100879.75;;;4.89;80.38
20368;BME280;10343;52.402;9.796;2023-12-14T07:36:07;100884.91;;;4.90;80.42
20368;BME280;10343;52.402;9.796;2023-12-14T07:38:35;100900.94;;;4.87;79.74
20368;BME280;10343;52.402;9.796;2023-12-14T07:41:03;100905.56;;;4.86;79.70
20368;BME280;10343;52.402;9.796;2023-12-14T07:43:31;100908.84;;;4.88;79.72
20368;BME280;10343;52.402;9.796;2023-12-14T07:45:59;100918.34;;;4.85;79.98
20368;BME280;10343;52.402;9.796;2023-12-14T07:48:26;100926.19;;;4.82;79.54
20368;BME280;10343;52.402;9.796;2023-12-14T07:50:55;100924.59;;;4.86;79.79
20368;BME280;10343;52.402;9.796;2023-12-14T07:53:24;100925.97;;;4.89;79.77
20368;BME280;10343;52.402;9.796;2023-12-14T07:55:53;100930.59;;;4.93;79.97
20368;BME280;10343;52.402;9.796;2023-12-14T07:58:21;100936.31;;;4.92;79.97
20368;BME280;10343;52.402;9.796;2023-12-14T08:00:49;100936.88;;;4.94;79.19
20368;BME280;10343;52.402;9.796;2023-12-14T08:03:16;100946.13;;;4.98;79.75
20368;BME280;10343;52.402;9.796;2023-12-14T08:05:44;100951.53;;;4.93;79.70
20368;BME280;10343;52.402;9.796;2023-12-14T08:08:12;100958.88;;;4.87;79.95
20368;BME280;10343;52.402;9.796;2023-12-14T08:10:42;100959.91;;;4.81;79.84
20368;BME280;10343;52.402;9.796;2023-12-14T08:13:09;100970.53;;;4.82;80.24
20368;BME280;10343;52.402;9.796;2023-12-14T08:15:37;100973.25;;;4.82;80.54
20368;BME280;10343;52.402;9.796;2023-12-14T08:18:05;100973.56;;;4.86;80.17
20368;BME280;10343;52.402;9.796;2023-12-14T08:20:34;100978.19;;;4.91;81.82
20368;BME280;10343;52.402;9.796;2023-12-14T08:23:02;100986.09;;;4.92;81.28
20368;BME280;10343;52.402;9.796;2023-12-14T08:25:30;100983.63;;;4.91;80.95
20368;BME280;10343;52.402;9.796;2023-12-14T08:27:59;100994.50;;;4.91;81.11
20368;BME280;10343;52.402;9.796;2023-12-14T08:30:31;101000.50;;;4.93;81.36
20368;BME280;10343;52.402;9.796;2023-12-14T08:32:59;101004.88;;;4.94;81.41
20368;BME280;10343;52.402;9.796;2023-12-14T08:35:26;101011.09;;;4.89;81.99
20368;BME280;10343;52.402;9.796;2023-12-14T08:37:54;101006.47;;;4.90;82.42
20368;BME280;10343;52.402;9.796;2023-12-14T08:40:22;101018.09;;;4.80;82.54
20368;BME280;10343;52.402;9.796;2023-12-14T08:42:50;101016.81;;;4.93;82.86
20368;BME280;10343;52.402;9.796;2023-12-14T08:45:19;101026.06;;;4.87;82.96
20368;BME280;10343;52.402;9.796;2023-12-14T08:47:47;101030.97;;;4.90;82.96
20368;BME280;10343;52.402;9.796;2023-12-14T08:50:15;101028.81;;;5.02;81.87
20368;BME280;10343;52.402;9.796;2023-12-14T08:52:43;101035.63;;;4.99;81.61
20368;BME280;10343;52.402;9.796;2023-12-14T08:55:11;101038.66;;;5.03;81.35
20368;BME280;10343;52.402;9.796;2023-12-14T08:57:39;101041.41;;;5.13;81.94
20368;BME280;10343;52.402;9.796;2023-12-14T09:00:07;101047.66;;;5.08;80.44
20368;BME280;10343;52.402;9.796;2023-12-14T09:02:36;101055.81;;;5.08;80.27
20368;BME280;10343;52.402;9.796;2023-12-14T09:05:06;101064.53;;;5.10;80.36
20368;BME280;10343;52.402;9.796;2023-12-14T09:07:34;101064.25;;;5.07;80.53
20368;BME280;10343;52.402;9.796;2023-12-14T09:10:02;101064.25;;;5.12;80.17
20368;BME280;10343;52.402;9.796;2023-12-14T09:12:30;101074.06;;;5.13;80.30
20368;BME280;10343;52.402;9.796;2023-12-14T09:14:58;101082.78;;;5.15;80.56
20368;BME280;10343;52.402;9.796;2023-12-14T09:17:26;101077.34;;;5.15;79.77
20368;BME280;10343;52.402;9.796;2023-12-14T09:20:05;101079.00;;;5.21;79.78
20368;BME280;10343;52.402;9.796;2023-12-14T09:22:34;101087.19;;;5.21;79.35
20368;BME280;10343;52.402;9.796;2023-12-14T09:25:01;101090.13;;;5.20;79.86
20368;BME280;10343;52.402;9.796;2023-12-14T09:27:29;101091.28;;;5.24;79.87
20368;BME280;10343;52.402;9.796;2023-12-14T09:29:57;101101.06;;;5.25;79.65
20368;BME280;10343;52.402;9.796;2023-12-14T09:32:25;101100.53;;;5.28;79.25
20368;BME280;10343;52.402;9.796;2023-12-14T09:34:53;101099.72;;;5.27;79.58
20368;BME280;10343;52.402;9.796;2023-12-14T09:37:24;101107.09;;;5.32;79.42
20368;BME280;10343;52.402;9.796;2023-12-14T09:39:52;101102.75;;;5.36;79.06
20368;BME280;10343;52.402;9.796;2023-12-14T09:42:20;101108.72;;;5.38;78.74
20368;BME280;10343;52.402;9.796;2023-12-14T09:44:48;101110.41;;;5.39;79.34
20368;BME280;10343;52.402;9.796;2023-12-14T09:47:17;101118.06;;;5.47;78.77
20368;BME280;10343;52.402;9.796;2023-12-14T09:49:45;101113.69;;;5.51;78.53
20368;BME280;10343;52.402;9.796;2023-12-14T09:52:13;101115.88;;;5.54;78.59
20368;BME280;10343;52.402;9.796;2023-12-14T09:54:42;101126.00;;;5.59;77.31
20368;BME280;10343;52.402;9.796;2023-12-14T09:57:10;101131.44;;;5.59;77.14
20368;BME280;10343;52.402;9.796;2023-12-14T09:59:38;101131.13;;;5.55;77.50
20368;BME280;10343;52.402;9.796;2023-12-14T10:02:09;101140.13;;;5.56;77.43
20368;BME280;10343;52.402;9.796;2023-12-14T10:04:38;101145.63;;;5.61;77.59
20368;BME280;10343;52.402;9.796;2023-12-14T10:07:06;101142.84;;;5.56;77.31
20368;BME280;10343;52.402;9.796;2023-12-14T10:09:36;101141.53;;;5.58;77.76
20368;BME280;10343;52.402;9.796;2023-12-14T10:12:07;101140.13;;;5.56;77.31
20368;BME280;10343;52.402;9.796;2023-12-14T10:14:36;101147.19;;;5.52;76.43
20368;BME280;10343;52.402;9.796;2023-12-14T10:17:14;101149.97;;;5.57;77.30
20368;BME280;10343;52.402;9.796;2023-12-14T10:19:43;101150.53;;;5.64;76.22
20368;BME280;10343;52.402;9.796;2023-12-14T10:22:11;101153.03;;;5.75;76.26
20368;BME280;10343;52.402;9.796;2023-12-14T10:24:43;101152.78;;;5.77;76.68
20368;BME280;10343;52.402;9.796;2023-12-14T10:27:13;101161.44;;;5.74;75.78
20368;BME280;10343;52.402;9.796;2023-12-14T10:29:42;101162.50;;;5.63;76.25
20368;BME280;10343;52.402;9.796;2023-12-14T10:32:11;101163.03;;;5.60;76.83
20368;BME280;10343;52.402;9.796;2023-12-14T10:34:40;101168.22;;;5.66;76.37
20368;BME280;10343;52.402;9.796;2023-12-14T10:37:08;101166.63;;;5.70;76.08
20368;BME280;10343;52.402;9.796;2023-12-14T10:39:38;101185.41;;;5.72;76.12
20368;BME280;10343;52.402;9.796;2023-12-14T10:42:08;101186.47;;;5.66;75.51
20368;BME280;10343;52.402;9.796;2023-12-14T10:44:49;101192.47;;;5.63;76.13
20368;BME280;10343;52.402;9.796;2023-12-14T10:47:21;101190.81;;;5.62;75.90
20368;BME280;10343;52.402;9.796;2023-12-14T10:49:50;101197.09;;;5.67;76.35
20368;BME280;10343;52.402;9.796;2023-12-14T10:52:19;101199.00;;;5.67;75.99
20368;BME280;10343;52.402;9.796;2023-12-14T10:54:52;101199.28;;;5.65;76.38
20368;BME280;10343;52.402;9.796;2023-12-14T10:57:21;101205.53;;;5.61;76.26
20368;BME280;10343;52.402;9.796;2023-12-14T10:59:57;101198.44;;;5.60;76.42
20368;BME280;10343;52.402;9.796;2023-12-14T11:02:25;101206.34;;;5.61;76.34
20368;BME280;10343;52.402;9.796;2023-12-14T11:04:57;101211.50;;;5.58;77.06
20368;BME280;10343;52.402;9.796;2023-12-14T11:07:46;101208.78;;;5.58;76.55
20368;BME280;10343;52.402;9.796;2023-12-14T11:10:15;101214.25;;;5.68;76.70
20368;BME280;10343;52.402;9.796;2023-12-14T11:12:51;101225.44;;;5.66;76.15
20368;BME280;10343;52.402;9.796;2023-12-14T11:15:21;101215.34;;;5.67;76.32
20368;BME280;10343;52.402;9.796;2023-12-14T11:18:21;101218.41;;;5.75;76.01
20368;BME280;10343;52.402;9.796;2023-12-14T11:20:50;101225.19;;;5.73;75.85
20368;BME280;10343;52.402;9.796;2023-12-14T11:23:30;101228.72;;;5.73;76.14
20368;BME280;10343;52.402;9.796;2023-12-14T11:26:00;101227.94;;;5.78;74.95
20368;BME280;10343;52.402;9.796;2023-12-14T11:28:32;101225.19;;;5.73;75.09
20368;BME280;10343;52.402;9.796;2023-12-14T11:31:02;101233.03;;;5.64;75.37
20368;BME280;10343;52.402;9.796;2023-12-14T11:33:33;101227.88;;;5.63;76.15
20368;BME280;10343;52.402;9.796;2023-12-14T11:36:08;101234.97;;;5.69;76.33
20368;BME280;10343;52.402;9.796;2023-12-14T11:38:36;101242.59;;;5.67;77.39
20368;BME280;10343;52.402;9.796;2023-12-14T11:41:04;101239.03;;;5.66;75.25
20368;BME280;10343;52.402;9.796;2023-12-14T11:43:39;101251.00;;;5.60;75.72
20368;BME280;10343;52.402;9.796;2023-12-14T11:46:08;101255.66;;;5.70;76.70
20368;BME280;10343;52.402;9.796;2023-12-14T11:48:36;101250.78;;;5.72;76.09
20368;BME280;10343;52.402;9.796;2023-12-14T11:51:05;101249.75;;;5.78;75.89
20368;BME280;10343;52.402;9.796;2023-12-14T11:53:33;101252.72;;;5.76;75.38
20368;BME280;10343;52.402;9.796;2023-12-14T11:56:05;101256.81;;;5.79;75.90
20368;BME280;10343;52.402;9.796;2023-12-14T11:58:33;101257.34;;;5.76;75.87
20368;BME280;10343;52.402;9.796;2023-12-14T12:01:12;101258.72;;;5.79;75.72
20368;BME280;10343;52.402;9.796;2023-12-14T12:03:40;101269.06;;;5.76;75.71
20368;BME280;10343;52.402;9.796;2023-12-14T12:06:08;101272.88;;;5.75;75.31
20368;BME280;10343;52.402;9.796;2023-12-14T12:08:40;101265.28;;;5.83;75.51
20368;BME280;10343;52.402;9.796;2023-12-14T12:11:08;101269.34;;;5.80;74.88
20368;BME280;10343;52.402;9.796;2023-12-14T12:13:36;101275.34;;;5.77;74.64
20368;BME280;10343;52.402;9.796;2023-12-14T12:16:04;101277.50;;;5.75;74.57
20368;BME280;10343;52.402;9.796;2023-12-14T12:18:33;101275.84;;;5.74;75.41
20368;BME280;10343;52.402;9.796;2023-12-14T12:21:04;101266.63;;;5.75;75.53
20368;BME280;10343;52.402;9.796;2023-12-14T12:23:34;101273.13;;;5.74;76.06
20368;BME280;10343;52.402;9.796;2023-12-14T12:26:02;101276.09;;;5.72;75.71
20368;BME280;10343;52.402;9.796;2023-12-14T12:28:31;101276.91;;;5.68;76.05
20368;BME280;10343;52.402;9.796;2023-12-14T12:30:59;101279.59;;;5.63;76.32
20368;BME280;10343;52.402;9.796;2023-12-14T12:33:27;101281.25;;;5.64;76.42
20368;BME280;10343;52.402;9.796;2023-12-14T12:35:57;101295.97;;;5.68;76.12
20368;BME280;10343;52.402;9.796;2023-12-14T12:38:25;101290.00;;;5.71;76.54
20368;BME280;10343;52.402;9.796;2023-12-14T12:40:53;101288.63;;;5.68;75.93
20368;BME280;10343;52.402;9.796;2023-12-14T12:43:22;101288.91;;;5.72;75.89
20368;BME280;10343;52.402;9.796;2023-12-14T12:45:50;101290.50;;;5.63;75.72
20368;BME280;10343;52.402;9.796;2023-12-14T12:48:18;101284.00;;;5.69;75.53
20368;BME280;10343;52.402;9.796;2023-12-14T12:50:49;101292.97;;;5.69;76.50
20368;BME280;10343;52.402;9.796;2023-12-14T12:53:18;101297.63;;;5.74;76.21
20368;BME280;10343;52.402;9.796;2023-12-14T12:55:46;101300.84;;;5.66;76.54
20368;BME280;10343;52.402;9.796;2023-12-14T12:58:14;101299.47;;;5.63;76.53
20368;BME280;10343;52.402;9.796;2023-12-14T13:00:42;101304.13;;;5.63;76.36
20368;BME280;10343;52.402;9.796;2023-12-14T13:03:09;101306.28;;;5.61;76.57
20368;BME280;10343;52.402;9.796;2023-12-14T13:05:37;101302.44;;;5.57;76.43
20368;BME280;10343;52.402;9.796;2023-12-14T13:08:05;101306.59;;;5.69;76.55